createdAt,value
2022-08-26T00:01:29.198Z,20.42
2022-08-26T00:04:32.766Z,20.32
2022-08-26T00:07:35.531Z,20.26
2022-08-26T00:10:42.249Z,20.26
2022-08-26T00:13:47.770Z,20.21
2022-08-26T00:16:52.696Z,20.14
2022-08-26T00:19:58.082Z,20.11
2022-08-26T00:23:01.117Z,20.09
2022-08-26T00:26:06.578Z,20.00
2022-08-26T00:29:12.256Z,19.85
2022-08-26T00:32:15.300Z,19.81
2022-08-26T00:35:19.018Z,19.74
2022-08-26T00:38:23.033Z,19.77
2022-08-26T00:41:27.554Z,19.75
2022-08-26T00:44:30.563Z,19.73
2022-08-26T00:47:37.722Z,19.71
2022-08-26T00:50:49.145Z,19.68
2022-08-26T00:53:56.470Z,19.69
2022-08-26T00:57:04.038Z,19.56
2022-08-26T01:00:12.064Z,19.47
2022-08-26T01:03:17.945Z,19.38
2022-08-26T01:06:21.352Z,19.26
2022-08-26T01:09:24.934Z,19.23
2022-08-26T01:12:32.834Z,19.26
2022-08-26T01:15:41.002Z,19.08
2022-08-26T01:18:46.828Z,19.00
2022-08-26T01:21:57.294Z,19.08
2022-08-26T01:25:03.531Z,19.12
2022-08-26T01:28:16.902Z,19.16
2022-08-26T01:31:23.822Z,19.08
2022-08-26T01:34:30.341Z,19.02
2022-08-26T01:37:36.883Z,18.92
2022-08-26T01:40:44.234Z,18.90
2022-08-26T01:43:49.022Z,18.85
2022-08-26T01:51:44.425Z,18.81
2022-08-26T01:54:50.590Z,18.85
2022-08-26T01:57:57.162Z,18.91
2022-08-26T02:01:00.186Z,18.93
2022-08-26T02:04:14.100Z,19.02
2022-08-26T02:07:20.174Z,19.01
2022-08-26T02:10:24.461Z,19.05
2022-08-26T02:13:32.903Z,18.91
2022-08-26T02:16:42.246Z,19.01
2022-08-26T02:19:48.648Z,19.02
2022-08-26T02:22:51.909Z,19.06
2022-08-26T02:26:00.953Z,19.06
2022-08-26T02:29:10.785Z,19.12
2022-08-26T02:32:14.709Z,19.06
2022-08-26T02:35:23.718Z,18.93
2022-08-26T02:38:27.757Z,19.01
2022-08-26T02:41:30.590Z,18.85
2022-08-26T02:44:37.473Z,18.68
2022-08-26T02:47:40.570Z,18.55
2022-08-26T02:50:43.861Z,18.43
2022-08-26T02:53:46.633Z,18.40
2022-08-26T02:56:50.811Z,18.49
2022-08-26T02:59:54.910Z,18.49
2022-08-26T03:02:58.130Z,18.62
2022-08-26T03:06:01.055Z,18.58
2022-08-26T03:09:05.150Z,18.71
2022-08-26T03:12:08.341Z,18.64
2022-08-26T03:15:17.712Z,18.53
2022-08-26T03:18:20.966Z,18.59
2022-08-26T03:21:23.877Z,18.71
2022-08-26T03:24:27.687Z,18.69
2022-08-26T03:27:30.478Z,18.62
2022-08-26T03:30:44.687Z,18.53
2022-08-26T03:33:48.325Z,18.50
2022-08-26T03:36:53.142Z,18.50
2022-08-26T03:39:55.962Z,18.47
2022-08-26T03:42:59.036Z,18.50
2022-08-26T03:46:07.128Z,18.54
2022-08-26T03:49:10.052Z,18.46
2022-08-26T03:52:12.800Z,18.41
2022-08-26T03:55:16.635Z,18.43
2022-08-26T03:58:20.919Z,18.44
2022-08-26T04:01:25.524Z,18.39
2022-08-26T04:04:28.344Z,18.27
2022-08-26T04:07:32.051Z,18.34
2022-08-26T04:10:38.384Z,18.36
2022-08-26T04:13:41.724Z,18.29
2022-08-26T04:16:47.304Z,18.29
2022-08-26T04:19:50.076Z,18.37
2022-08-26T04:22:52.801Z,18.22
2022-08-26T04:25:55.580Z,18.36
2022-08-26T04:28:58.515Z,18.30
2022-08-26T04:32:04.159Z,18.37
2022-08-26T04:35:07.993Z,18.31
2022-08-26T04:38:12.212Z,18.35
2022-08-26T04:41:17.013Z,18.29
2022-08-26T04:44:19.917Z,18.31
2022-08-26T04:47:30.340Z,18.37
2022-08-26T04:50:35.073Z,18.29
2022-08-26T04:53:38.657Z,18.27
2022-08-26T04:56:45.081Z,18.29
2022-08-26T04:59:47.979Z,18.26
2022-08-26T05:02:53.991Z,18.34
2022-08-26T05:05:57.301Z,18.35
2022-08-26T05:09:00.231Z,18.38
2022-08-26T05:12:05.675Z,18.42
2022-08-26T05:15:10.396Z,18.42
2022-08-26T05:18:16.479Z,18.46
2022-08-26T05:21:21.249Z,18.47
2022-08-26T05:24:24.360Z,18.57
2022-08-26T05:27:27.166Z,18.58
2022-08-26T05:30:31.455Z,18.64
2022-08-26T05:33:35.623Z,18.69
2022-08-26T05:36:38.985Z,18.68
2022-08-26T05:39:43.517Z,18.76
2022-08-26T05:42:53.985Z,18.83
2022-08-26T05:45:57.317Z,18.81
2022-08-26T05:49:01.686Z,18.91
2022-08-26T05:52:05.052Z,18.96
2022-08-26T05:55:08.488Z,19.01
2022-08-26T05:58:11.339Z,19.06
2022-08-26T06:01:17.239Z,19.15
2022-08-26T06:04:21.793Z,19.22
2022-08-26T06:07:44.905Z,19.31
2022-08-26T06:10:50.005Z,19.40
2022-08-26T06:13:57.099Z,19.47
2022-08-26T06:17:03.051Z,19.56
2022-08-26T06:20:08.315Z,19.70
2022-08-26T06:23:29.665Z,19.76
2022-08-26T06:26:33.203Z,19.89
2022-08-26T06:29:38.551Z,20.01
2022-08-26T06:32:41.542Z,20.10
2022-08-26T06:35:46.836Z,20.28
2022-08-26T06:38:51.977Z,20.35
2022-08-26T06:41:56.196Z,20.46
2022-08-26T06:45:01.527Z,20.54
2022-08-26T06:48:06.641Z,20.66
2022-08-26T06:51:13.887Z,20.81
2022-08-26T06:54:16.672Z,20.87
2022-08-26T06:57:19.386Z,20.94
2022-08-26T07:00:23.120Z,21.01
2022-08-26T07:03:25.958Z,21.01
2022-08-26T07:06:30.850Z,20.97
2022-08-26T07:09:35.428Z,20.98
2022-08-26T07:12:39.943Z,21.01
2022-08-26T07:15:44.106Z,21.04
2022-08-26T07:18:48.647Z,21.09
2022-08-26T07:21:54.109Z,21.10
2022-08-26T07:24:58.397Z,21.18
2022-08-26T07:28:02.550Z,21.23
2022-08-26T07:31:07.438Z,21.28
2022-08-26T07:34:13.926Z,21.35
2022-08-26T07:37:18.662Z,21.45
2022-08-26T07:40:23.706Z,21.57
2022-08-26T07:43:26.615Z,21.68
2022-08-26T07:46:32.312Z,21.77
2022-08-26T07:49:35.932Z,21.97
2022-08-26T07:52:40.397Z,22.05
2022-08-26T07:55:44.106Z,22.21
2022-08-26T07:58:51.269Z,22.30
2022-08-26T08:01:54.543Z,22.41
2022-08-26T08:04:58.973Z,22.54
2022-08-26T08:08:19.660Z,22.63
2022-08-26T08:11:31.153Z,22.73
2022-08-26T08:14:34.622Z,22.92
2022-08-26T08:17:37.436Z,23.06
2022-08-26T08:20:44.673Z,23.14
2022-08-26T08:23:52.176Z,23.14
2022-08-26T08:26:55.460Z,23.32
2022-08-26T08:29:59.185Z,23.28
2022-08-26T08:33:03.282Z,23.40
2022-08-26T08:36:07.332Z,23.55
2022-08-26T08:39:13.606Z,23.81
2022-08-26T08:42:45.663Z,23.83
2022-08-26T08:45:55.206Z,23.88
2022-08-26T08:48:59.979Z,24.04
2022-08-26T08:52:07.934Z,24.23
2022-08-26T08:55:18.191Z,24.36
2022-08-26T08:58:25.755Z,24.48
2022-08-26T09:01:43.186Z,24.57
2022-08-26T09:05:04.617Z,24.65
2022-08-26T09:08:12.852Z,24.76
2022-08-26T09:11:18.734Z,24.73
2022-08-26T09:14:21.615Z,24.76
2022-08-26T09:17:34.146Z,24.67
2022-08-26T09:20:47.600Z,24.87
2022-08-26T09:23:53.097Z,24.96
2022-08-26T09:26:59.057Z,24.92
2022-08-26T09:30:02.061Z,24.80
2022-08-26T09:33:10.840Z,24.67
2022-08-26T09:36:22.902Z,24.58
2022-08-26T09:39:33.174Z,24.49
2022-08-26T09:42:37.426Z,24.46
2022-08-26T09:45:50.857Z,24.41
2022-08-26T09:48:56.291Z,24.39
2022-08-26T09:52:22.429Z,24.36
2022-08-26T09:55:25.423Z,24.32
2022-08-26T09:58:38.324Z,24.40
2022-08-26T10:01:42.845Z,24.46
2022-08-26T10:04:54.211Z,24.41
2022-08-26T10:07:58.223Z,24.38
2022-08-26T10:11:05.014Z,24.34
2022-08-26T10:14:16.775Z,24.36
2022-08-26T10:17:26.643Z,24.40
2022-08-26T10:20:37.125Z,24.39
2022-08-26T10:23:43.600Z,24.38
2022-08-26T10:27:00.844Z,24.35
2022-08-26T10:30:08.620Z,24.39
2022-08-26T10:33:15.631Z,24.53
2022-08-26T10:37:05.123Z,24.67
2022-08-26T10:40:09.283Z,24.86
2022-08-26T10:43:17.042Z,24.98
2022-08-26T10:46:27.147Z,25.15
2022-08-26T10:49:30.314Z,25.34
2022-08-26T10:52:52.549Z,25.52
2022-08-26T10:56:02.657Z,25.52
2022-08-26T10:59:19.815Z,25.58
2022-08-26T11:02:33.643Z,25.78
2022-08-26T11:05:37.003Z,25.84
2022-08-26T11:08:47.685Z,26.00
2022-08-26T11:11:55.906Z,26.03
2022-08-26T11:15:00.630Z,26.11
2022-08-26T11:18:08.252Z,26.07
2022-08-26T11:21:49.571Z,26.12
2022-08-26T11:25:06.861Z,26.19
2022-08-26T11:28:36.503Z,26.06
2022-08-26T11:31:56.552Z,26.23
2022-08-26T11:35:04.924Z,26.07
2022-08-26T11:38:18.285Z,26.03
2022-08-26T11:41:29.161Z,26.31
2022-08-26T11:44:40.628Z,25.47
2022-08-26T11:47:43.513Z,25.08
2022-08-26T11:50:56.063Z,24.84
2022-08-26T11:54:13.241Z,24.73
2022-08-26T11:57:16.167Z,24.85
2022-08-26T12:00:22.428Z,24.76
2022-08-26T12:03:31.894Z,24.36
2022-08-26T12:06:45.239Z,24.02
2022-08-26T12:09:56.402Z,23.89
2022-08-26T12:13:01.649Z,23.97
2022-08-26T12:16:04.884Z,23.89
2022-08-26T12:19:22.703Z,23.71
2022-08-26T12:22:36.089Z,23.57
2022-08-26T12:25:39.406Z,23.35
2022-08-26T12:28:46.902Z,23.23
2022-08-26T12:31:49.844Z,23.12
2022-08-26T12:34:52.914Z,22.92
2022-08-26T12:37:57.630Z,22.61
2022-08-26T12:41:00.717Z,22.56
2022-08-26T12:44:03.892Z,22.50
2022-08-26T12:47:11.130Z,22.46
2022-08-26T12:50:19.658Z,22.34
2022-08-26T12:53:26.430Z,22.34
2022-08-26T12:56:36.611Z,21.90
2022-08-26T12:59:40.394Z,21.90
2022-08-26T13:02:43.293Z,21.88
2022-08-26T13:05:46.534Z,21.78
2022-08-26T13:08:53.297Z,21.76
2022-08-26T13:12:02.232Z,21.73
2022-08-26T13:15:07.015Z,21.66
2022-08-26T13:18:09.817Z,21.56
2022-08-26T13:21:17.470Z,21.53
2022-08-26T13:24:25.923Z,21.65
2022-08-26T13:27:29.641Z,21.67
2022-08-26T13:30:32.809Z,21.68
2022-08-26T13:33:35.922Z,21.68
2022-08-26T13:36:40.350Z,21.57
2022-08-26T13:39:45.012Z,21.64
2022-08-26T13:42:49.840Z,21.64
2022-08-26T13:45:53.952Z,21.61
2022-08-26T13:48:59.129Z,21.60
2022-08-26T13:52:03.854Z,21.61
2022-08-26T13:55:09.195Z,21.66
2022-08-26T13:58:13.932Z,21.67
2022-08-26T14:01:18.386Z,21.67
2022-08-26T14:04:27.131Z,21.58
2022-08-26T14:07:30.341Z,21.59
2022-08-26T14:10:34.908Z,21.56
2022-08-26T14:13:38.140Z,21.58
2022-08-26T14:16:59.830Z,21.48
2022-08-26T14:20:04.536Z,21.48
2022-08-26T14:23:13.901Z,21.49
2022-08-26T14:26:29.177Z,21.42
2022-08-26T14:29:33.071Z,21.46
2022-08-26T14:32:36.901Z,21.46
2022-08-26T14:35:47.998Z,21.47
2022-08-26T14:38:51.944Z,21.46
2022-08-26T14:41:57.862Z,21.43
2022-08-26T14:45:03.587Z,21.46
2022-08-26T14:48:07.639Z,21.45
2022-08-26T14:51:10.555Z,21.45
2022-08-26T14:54:14.687Z,21.55
2022-08-26T14:57:18.933Z,21.51
2022-08-26T15:00:22.170Z,21.50
2022-08-26T15:03:24.943Z,21.54
2022-08-26T15:06:28.514Z,21.60
2022-08-26T15:09:34.142Z,21.61
2022-08-26T15:12:38.491Z,21.63
2022-08-26T15:15:41.283Z,21.65
2022-08-26T15:18:44.149Z,21.67
2022-08-26T15:21:47.546Z,21.68
2022-08-26T15:24:51.772Z,21.66
2022-08-26T15:27:57.883Z,21.62
2022-08-26T15:31:00.950Z,21.64
2022-08-26T15:34:06.943Z,21.68
2022-08-26T15:37:09.781Z,21.72
2022-08-26T15:40:13.142Z,21.76
2022-08-26T15:43:28.144Z,21.76
2022-08-26T15:46:32.079Z,21.74
2022-08-26T15:49:34.958Z,21.68
2022-08-26T15:52:39.436Z,21.73
2022-08-26T15:55:42.189Z,21.72
2022-08-26T15:58:46.824Z,21.78
2022-08-26T16:01:50.637Z,21.76
2022-08-26T16:04:53.504Z,21.78
2022-08-26T16:07:57.821Z,21.76
2022-08-26T16:11:03.513Z,21.75
2022-08-26T16:14:08.427Z,21.74
2022-08-26T16:17:11.554Z,21.77
2022-08-26T16:20:14.292Z,21.76
2022-08-26T16:23:17.493Z,21.72
2022-08-26T16:26:24.172Z,21.78
2022-08-26T16:29:28.610Z,21.80
2022-08-26T16:32:31.455Z,21.82
2022-08-26T16:35:34.343Z,21.88
2022-08-26T16:38:38.663Z,21.88
2022-08-26T16:41:41.876Z,21.87
2022-08-26T16:44:46.518Z,21.89
2022-08-26T16:47:50.354Z,21.93
2022-08-26T16:50:55.820Z,21.81
2022-08-26T16:53:59.820Z,21.77
2022-08-26T16:57:05.625Z,21.84
2022-08-26T17:00:14.761Z,21.86
2022-08-26T17:03:18.512Z,21.89
2022-08-26T17:06:21.413Z,21.82
2022-08-26T17:09:24.999Z,21.90
2022-08-26T17:12:28.403Z,21.86
2022-08-26T17:15:32.978Z,21.75
2022-08-26T17:18:37.015Z,21.72
2022-08-26T17:21:40.734Z,21.59
2022-08-26T17:24:44.201Z,21.47
2022-08-26T17:27:47.206Z,21.47
2022-08-26T17:30:53.843Z,21.54
2022-08-26T17:33:56.811Z,21.50
2022-08-26T17:37:01.819Z,21.51
2022-08-26T17:40:07.392Z,21.49
2022-08-26T17:43:12.430Z,21.40
2022-08-26T17:46:22.970Z,21.54
2022-08-26T17:49:27.392Z,21.57
2022-08-26T17:52:31.451Z,21.47
2022-08-26T17:55:37.465Z,21.47
2022-08-26T17:58:48.216Z,21.37
2022-08-26T18:01:59.054Z,21.47
2022-08-26T18:05:01.863Z,21.50
2022-08-26T18:08:05.417Z,21.34
2022-08-26T18:11:10.610Z,21.47
2022-08-26T18:14:13.756Z,21.45
2022-08-26T18:17:19.447Z,21.43
2022-08-26T18:20:22.421Z,21.16
2022-08-26T18:23:26.733Z,21.20
2022-08-26T18:26:33.965Z,20.95
2022-08-26T18:29:36.762Z,20.78
2022-08-26T18:32:50.623Z,20.75
2022-08-26T18:35:53.810Z,20.65
2022-08-26T18:38:57.817Z,20.75
2022-08-26T18:42:00.568Z,20.82
2022-08-26T18:45:03.657Z,20.85
2022-08-26T18:48:09.070Z,20.91
2022-08-26T18:51:19.644Z,20.81
2022-08-26T18:54:22.761Z,20.83
2022-08-26T18:57:25.838Z,20.75
2022-08-26T19:00:28.753Z,20.61
2022-08-26T19:03:33.689Z,20.61
2022-08-26T19:06:38.975Z,20.68
2022-08-26T19:09:41.906Z,20.65
2022-08-26T19:12:45.695Z,20.62
2022-08-26T19:15:57.106Z,20.67
2022-08-26T19:19:06.674Z,20.73
2022-08-26T19:22:09.634Z,20.76
2022-08-26T19:25:12.668Z,20.71
2022-08-26T19:28:17.760Z,20.73
2022-08-26T19:31:23.538Z,20.83
2022-08-26T19:34:28.060Z,20.89
2022-08-26T19:37:30.900Z,20.85
2022-08-26T19:40:36.304Z,20.82
2022-08-26T19:43:39.243Z,20.74
2022-08-26T19:46:44.068Z,20.86
2022-08-26T19:49:48.318Z,20.76
2022-08-26T19:52:51.088Z,20.75
2022-08-26T19:55:54.781Z,20.51
2022-08-26T19:58:58.175Z,20.44
2022-08-26T20:02:02.193Z,20.52
2022-08-26T20:05:09.343Z,20.53
2022-08-26T20:08:21.988Z,20.53
2022-08-26T20:11:29.451Z,20.44
2022-08-26T20:14:32.724Z,20.49
2022-08-26T20:17:36.023Z,20.48
2022-08-26T20:20:57.635Z,20.50
2022-08-26T20:24:07.214Z,20.54
2022-08-26T20:27:10.170Z,20.51
2022-08-26T20:30:14.807Z,20.44
2022-08-26T20:33:17.979Z,20.47
2022-08-26T20:36:24.143Z,20.41
2022-08-26T20:39:29.045Z,20.36
2022-08-26T20:42:32.876Z,20.23
2022-08-26T20:45:36.019Z,20.23
2022-08-26T20:48:38.945Z,20.30
2022-08-26T20:51:43.863Z,20.35
2022-08-26T20:54:46.593Z,20.24
2022-08-26T20:57:49.734Z,20.15
2022-08-26T21:00:52.569Z,20.13
2022-08-26T21:03:57.874Z,20.17
2022-08-26T21:07:02.068Z,20.18
2022-08-26T21:10:05.291Z,20.07
2022-08-26T21:13:08.730Z,19.97
2022-08-26T21:16:12.310Z,19.96
2022-08-26T21:19:18.006Z,20.00
2022-08-26T21:22:22.461Z,19.89
2022-08-26T21:25:25.557Z,19.69
2022-08-26T21:28:28.330Z,19.80
2022-08-26T21:31:32.074Z,19.83
2022-08-26T21:34:35.200Z,19.81
2022-08-26T21:37:39.377Z,19.83
2022-08-26T21:40:42.168Z,19.80
2022-08-26T21:43:45.541Z,19.69
2022-08-26T21:46:49.855Z,19.72
2022-08-26T21:49:52.797Z,19.65
2022-08-26T21:52:56.862Z,19.79
2022-08-26T21:55:59.779Z,19.82
2022-08-26T21:59:03.067Z,19.82
2022-08-26T22:02:07.286Z,19.85
2022-08-26T22:05:10.607Z,19.80
2022-08-26T22:08:15.593Z,19.77
2022-08-26T22:11:19.021Z,19.76
2022-08-26T22:14:25.371Z,19.84
2022-08-26T22:17:30.251Z,19.81
2022-08-26T22:20:33.482Z,19.77
2022-08-26T22:23:39.106Z,19.82
2022-08-26T22:26:41.981Z,19.85
2022-08-26T22:29:46.600Z,19.90
2022-08-26T22:32:49.387Z,19.89
2022-08-26T22:35:53.874Z,19.70
2022-08-26T22:38:58.860Z,19.64
2022-08-26T22:42:01.693Z,19.69
2022-08-26T22:45:05.944Z,19.65
2022-08-26T22:48:08.954Z,19.77
2022-08-26T22:51:12.333Z,19.77
2022-08-26T22:54:17.431Z,19.80
2022-08-26T22:57:20.889Z,19.66
2022-08-26T23:00:32.039Z,19.65
2022-08-26T23:03:36.168Z,19.65
2022-08-26T23:06:43.070Z,19.58
2022-08-26T23:09:47.293Z,19.35
2022-08-26T23:12:50.477Z,19.44
2022-08-26T23:16:01.577Z,19.33
2022-08-26T23:19:05.038Z,19.37
2022-08-26T23:22:08.127Z,19.48
2022-08-26T23:25:13.204Z,19.54
2022-08-26T23:28:15.963Z,19.47
2022-08-26T23:31:18.785Z,19.31
2022-08-26T23:34:44.723Z,19.26
2022-08-26T23:37:51.324Z,19.26
2022-08-26T23:40:55.698Z,19.27
2022-08-26T23:44:02.818Z,19.23
2022-08-26T23:47:07.276Z,19.40
2022-08-26T23:50:10.780Z,19.44
2022-08-26T23:53:19.342Z,19.49
2022-08-26T23:56:23.451Z,19.52
2022-08-26T23:59:26.602Z,19.50
